sensor_id;sensor_type;location;lat;lon;timestamp;temperature;humidity
21085;DHT22;72320;50.082;20.000;2024-03-23T00:55:11;25.10;37.80
21085;DHT22;72320;50.082;20.000;2024-03-23T00:57:56;25.10;37.40
21085;DHT22;72320;50.082;20.000;2024-03-23T01:00:42;25.10;37.60
21085;DHT22;72320;50.082;20.000;2024-03-23T01:03:28;25.10;37.90
21085;DHT22;72320;50.082;20.000;2024-03-23T01:06:14;25.10;38.20
21085;DHT22;72320;50.082;20.000;2024-03-23T01:08:59;25.10;38.20
21085;DHT22;72320;50.082;20.000;2024-03-23T01:11:45;25.10;38.20
21085;DHT22;72320;50.082;20.000;2024-03-23T01:14:31;25.10;38.10
21085;DHT22;72320;50.082;20.000;2024-03-23T01:17:16;25.10;38.30
21085;DHT22;72320;50.082;20.000;2024-03-23T01:20:02;25.00;38.20
21085;DHT22;72320;50.082;20.000;2024-03-23T01:22:48;25.00;38.30
21085;DHT22;72320;50.082;20.000;2024-03-23T01:25:34;25.00;38.10
21085;DHT22;72320;50.082;20.000;2024-03-23T01:28:20;24.90;38.30
21085;DHT22;72320;50.082;20.000;2024-03-23T01:31:06;24.90;38.50
21085;DHT22;72320;50.082;20.000;2024-03-23T01:33:52;24.90;38.40
21085;DHT22;72320;50.082;20.000;2024-03-23T01:36:38;24.90;38.40
21085;DHT22;72320;50.082;20.000;2024-03-23T01:39:04;24.80;38.40
21085;DHT22;72320;50.082;20.000;2024-03-23T01:41:30;24.90;38.60
21085;DHT22;72320;50.082;20.000;2024-03-23T01:43:56;24.90;38.60
21085;DHT22;72320;50.082;20.000;2024-03-23T01:46:22;24.90;38.40
21085;DHT22;72320;50.082;20.000;2024-03-23T01:48:48;25.00;38.40
21085;DHT22;72320;50.082;20.000;2024-03-23T01:51:15;24.90;38.40
21085;DHT22;72320;50.082;20.000;2024-03-23T01:53:41;24.80;38.40
21085;DHT22;72320;50.082;20.000;2024-03-23T01:56:07;24.80;38.30
21085;DHT22;72320;50.082;20.000;2024-03-23T01:58:33;24.80;38.20
21085;DHT22;72320;50.082;20.000;2024-03-23T02:01:00;24.60;38.20
21085;DHT22;72320;50.082;20.000;2024-03-23T02:03:26;24.30;38.60
21085;DHT22;72320;50.082;20.000;2024-03-23T02:05:53;24.10;38.70
21085;DHT22;72320;50.082;20.000;2024-03-23T02:08:20;24.10;38.80
21085;DHT22;72320;50.082;20.000;2024-03-23T02:10:49;24.00;38.80
21085;DHT22;72320;50.082;20.000;2024-03-23T02:13:16;23.80;38.80
21085;DHT22;72320;50.082;20.000;2024-03-23T02:15:44;23.70;38.90
21085;DHT22;72320;50.082;20.000;2024-03-23T02:18:33;23.60;39.00
21085;DHT22;72320;50.082;20.000;2024-03-23T02:20:59;23.80;38.60
21085;DHT22;72320;50.082;20.000;2024-03-23T02:23:44;24.00;38.30
21085;DHT22;72320;50.082;20.000;2024-03-23T02:26:30;24.20;37.80
21085;DHT22;72320;50.082;20.000;2024-03-23T02:29:11;24.40;37.50
21085;DHT22;72320;50.082;20.000;2024-03-23T02:31:57;24.50;37.30
21085;DHT22;72320;50.082;20.000;2024-03-23T02:34:43;24.60;37.00
21085;DHT22;72320;50.082;20.000;2024-03-23T02:37:28;24.80;37.30
21085;DHT22;72320;50.082;20.000;2024-03-23T02:40:14;24.90;37.20
21085;DHT22;72320;50.082;20.000;2024-03-23T02:43:01;24.70;36.90
21085;DHT22;72320;50.082;20.000;2024-03-23T02:45:48;24.70;37.30
21085;DHT22;72320;50.082;20.000;2024-03-23T02:48:35;24.80;37.70
21085;DHT22;72320;50.082;20.000;2024-03-23T02:51:21;24.90;37.00
21085;DHT22;72320;50.082;20.000;2024-03-23T02:54:07;24.90;37.50
21085;DHT22;72320;50.082;20.000;2024-03-23T02:56:53;24.90;37.60
21085;DHT22;72320;50.082;20.000;2024-03-23T02:59:39;25.00;37.20
21085;DHT22;72320;50.082;20.000;2024-03-23T03:02:25;25.00;37.30
21085;DHT22;72320;50.082;20.000;2024-03-23T03:04:50;25.00;37.00
21085;DHT22;72320;50.082;20.000;2024-03-23T03:07:36;25.00;37.10
21085;DHT22;72320;50.082;20.000;2024-03-23T03:10:23;25.00;37.40
21085;DHT22;72320;50.082;20.000;2024-03-23T03:13:09;25.00;37.40
21085;DHT22;72320;50.082;20.000;2024-03-23T03:15:55;25.00;37.10
21085;DHT22;72320;50.082;20.000;2024-03-23T03:18:43;25.00;37.20
21085;DHT22;72320;50.082;20.000;2024-03-23T03:21:28;25.00;37.20
21085;DHT22;72320;50.082;20.000;2024-03-23T03:24:14;25.00;37.20
21085;DHT22;72320;50.082;20.000;2024-03-23T03:27:00;25.00;37.30
21085;DHT22;72320;50.082;20.000;2024-03-23T03:29:46;25.00;37.30
21085;DHT22;72320;50.082;20.000;2024-03-23T03:32:11;25.00;37.30
21085;DHT22;72320;50.082;20.000;2024-03-23T03:34:58;24.90;37.20
21085;DHT22;72320;50.082;20.000;2024-03-23T03:37:43;24.90;37.40
21085;DHT22;72320;50.082;20.000;2024-03-23T03:40:29;24.90;37.60
21085;DHT22;72320;50.082;20.000;2024-03-23T03:43:15;24.90;37.60
21085;DHT22;72320;50.082;20.000;2024-03-23T03:46:01;24.90;37.70
21085;DHT22;72320;50.082;20.000;2024-03-23T03:48:49;24.90;37.70
21085;DHT22;72320;50.082;20.000;2024-03-23T03:51:35;24.90;37.80
21085;DHT22;72320;50.082;20.000;2024-03-23T03:54:21;24.90;37.70
21085;DHT22;72320;50.082;20.000;2024-03-23T03:57:07;24.80;37.80
21085;DHT22;72320;50.082;20.000;2024-03-23T03:59:52;24.80;38.10
21085;DHT22;72320;50.082;20.000;2024-03-23T04:02:39;24.80;38.30
21085;DHT22;72320;50.082;20.000;2024-03-23T04:05:25;24.70;38.20
21085;DHT22;72320;50.082;20.000;2024-03-23T04:08:11;24.70;38.40
21085;DHT22;72320;50.082;20.000;2024-03-23T04:10:56;24.70;38.60
21085;DHT22;72320;50.082;20.000;2024-03-23T04:13:43;24.70;38.80
21085;DHT22;72320;50.082;20.000;2024-03-23T04:16:29;24.70;38.70
21085;DHT22;72320;50.082;20.000;2024-03-23T04:19:20;24.70;38.80
21085;DHT22;72320;50.082;20.000;2024-03-23T04:22:06;24.60;38.50
21085;DHT22;72320;50.082;20.000;2024-03-23T04:24:54;24.60;38.70
21085;DHT22;72320;50.082;20.000;2024-03-23T04:27:41;24.60;38.70
21085;DHT22;72320;50.082;20.000;2024-03-23T04:30:27;24.60;38.80
21085;DHT22;72320;50.082;20.000;2024-03-23T04:33:13;24.60;38.80
21085;DHT22;72320;50.082;20.000;2024-03-23T04:35:59;24.60;39.00
21085;DHT22;72320;50.082;20.000;2024-03-23T04:38:46;24.60;39.00
21085;DHT22;72320;50.082;20.000;2024-03-23T04:41:33;24.60;39.00
21085;DHT22;72320;50.082;20.000;2024-03-23T04:44:18;24.60;39.50
21085;DHT22;72320;50.082;20.000;2024-03-23T04:47:04;24.60;39.90
21085;DHT22;72320;50.082;20.000;2024-03-23T04:49:50;24.50;39.80
21085;DHT22;72320;50.082;20.000;2024-03-23T04:52:36;24.50;39.80
21085;DHT22;72320;50.082;20.000;2024-03-23T04:55:22;24.50;40.20
21085;DHT22;72320;50.082;20.000;2024-03-23T04:58:07;24.50;40.50
21085;DHT22;72320;50.082;20.000;2024-03-23T05:00:55;24.50;40.70
21085;DHT22;72320;50.082;20.000;2024-03-23T05:03:23;24.50;40.80
21085;DHT22;72320;50.082;20.000;2024-03-23T05:05:49;24.50;40.80
21085;DHT22;72320;50.082;20.000;2024-03-23T05:08:16;24.50;40.90
21085;DHT22;72320;50.082;20.000;2024-03-23T05:10:42;24.40;40.80
21085;DHT22;72320;50.082;20.000;2024-03-23T05:13:08;24.40;40.80
21085;DHT22;72320;50.082;20.000;2024-03-23T05:15:35;24.40;40.70
21085;DHT22;72320;50.082;20.000;2024-03-23T05:18:01;24.40;40.90
21085;DHT22;72320;50.082;20.000;2024-03-23T05:20:28;24.40;40.80
21085;DHT22;72320;50.082;20.000;2024-03-23T05:22:57;24.40;40.80
21085;DHT22;72320;50.082;20.000;2024-03-23T05:25:23;24.30;40.80
21085;DHT22;72320;50.082;20.000;2024-03-23T05:27:48;24.30;40.50
21085;DHT22;72320;50.082;20.000;2024-03-23T05:30:15;24.30;40.60
21085;DHT22;72320;50.082;20.000;2024-03-23T05:32:40;24.40;40.80
21085;DHT22;72320;50.082;20.000;2024-03-23T05:35:07;24.50;40.90
21085;DHT22;72320;50.082;20.000;2024-03-23T05:37:34;24.50;40.70
21085;DHT22;72320;50.082;20.000;2024-03-23T05:40:20;24.50;40.60
21085;DHT22;72320;50.082;20.000;2024-03-23T05:43:08;24.50;40.60
21085;DHT22;72320;50.082;20.000;2024-03-23T05:45:42;24.40;41.00
21085;DHT22;72320;50.082;20.000;2024-03-23T05:48:28;24.30;41.20
21085;DHT22;72320;50.082;20.000;2024-03-23T05:51:14;24.40;41.30
21085;DHT22;72320;50.082;20.000;2024-03-23T05:54:00;24.50;41.10
21085;DHT22;72320;50.082;20.000;2024-03-23T05:56:26;24.60;40.90
21085;DHT22;72320;50.082;20.000;2024-03-23T05:59:12;24.50;41.20
21085;DHT22;72320;50.082;20.000;2024-03-23T06:01:57;24.40;41.30
21085;DHT22;72320;50.082;20.000;2024-03-23T06:04:45;24.50;41.10
21085;DHT22;72320;50.082;20.000;2024-03-23T06:07:31;24.30;41.20
21085;DHT22;72320;50.082;20.000;2024-03-23T06:10:18;24.00;41.70
21085;DHT22;72320;50.082;20.000;2024-03-23T06:13:07;23.90;42.10
21085;DHT22;72320;50.082;20.000;2024-03-23T06:15:56;23.90;42.70
21085;DHT22;72320;50.082;20.000;2024-03-23T06:18:42;24.00;42.00
21085;DHT22;72320;50.082;20.000;2024-03-23T06:21:16;23.90;42.30
21085;DHT22;72320;50.082;20.000;2024-03-23T06:24:02;23.70;42.50
21085;DHT22;72320;50.082;20.000;2024-03-23T06:26:48;23.70;42.80
21085;DHT22;72320;50.082;20.000;2024-03-23T06:29:34;23.80;42.80
21085;DHT22;72320;50.082;20.000;2024-03-23T06:32:20;23.90;42.90
21085;DHT22;72320;50.082;20.000;2024-03-23T06:35:06;23.70;42.70
21085;DHT22;72320;50.082;20.000;2024-03-23T06:37:52;23.80;42.80
21085;DHT22;72320;50.082;20.000;2024-03-23T06:40:38;24.10;42.20
21085;DHT22;72320;50.082;20.000;2024-03-23T06:43:24;24.10;42.30
21085;DHT22;72320;50.082;20.000;2024-03-23T06:46:10;24.00;42.10
21085;DHT22;72320;50.082;20.000;2024-03-23T06:48:55;24.00;42.00
21085;DHT22;72320;50.082;20.000;2024-03-23T06:51:42;24.10;41.70
21085;DHT22;72320;50.082;20.000;2024-03-23T06:54:27;24.30;41.10
21085;DHT22;72320;50.082;20.000;2024-03-23T06:56:53;24.40;41.30
21085;DHT22;72320;50.082;20.000;2024-03-23T06:59:39;24.60;40.90
21085;DHT22;72320;50.082;20.000;2024-03-23T07:02:26;24.80;40.50
21085;DHT22;72320;50.082;20.000;2024-03-23T07:05:11;25.10;40.10
21085;DHT22;72320;50.082;20.000;2024-03-23T07:07:57;25.30;39.60
21085;DHT22;72320;50.082;20.000;2024-03-23T07:10:43;25.50;39.70
21085;DHT22;72320;50.082;20.000;2024-03-23T07:13:29;25.70;39.80
21085;DHT22;72320;50.082;20.000;2024-03-23T07:16:15;25.70;39.50
21085;DHT22;72320;50.082;20.000;2024-03-23T07:19:01;25.80;39.20
21085;DHT22;72320;50.082;20.000;2024-03-23T07:21:48;25.70;39.20
21085;DHT22;72320;50.082;20.000;2024-03-23T07:24:34;25.60;39.00
21085;DHT22;72320;50.082;20.000;2024-03-23T07:27:20;25.80;38.50
21085;DHT22;72320;50.082;20.000;2024-03-23T07:30:06;26.00;38.30
21085;DHT22;72320;50.082;20.000;2024-03-23T07:32:35;26.00;38.30
21085;DHT22;72320;50.082;20.000;2024-03-23T07:35:21;26.00;38.20
21085;DHT22;72320;50.082;20.000;2024-03-23T07:38:07;26.00;38.10
21085;DHT22;72320;50.082;20.000;2024-03-23T07:41:01;26.10;38.10
21085;DHT22;72320;50.082;20.000;2024-03-23T07:43:54;26.30;37.80
21085;DHT22;72320;50.082;20.000;2024-03-23T07:46:40;26.50;37.50
21085;DHT22;72320;50.082;20.000;2024-03-23T07:49:26;26.70;37.50
21085;DHT22;72320;50.082;20.000;2024-03-23T07:52:12;26.90;36.70
21085;DHT22;72320;50.082;20.000;2024-03-23T07:54:59;27.00;37.20
21085;DHT22;72320;50.082;20.000;2024-03-23T07:57:25;27.00;36.60
21085;DHT22;72320;50.082;20.000;2024-03-23T08:00:11;27.30;36.60
21085;DHT22;72320;50.082;20.000;2024-03-23T08:02:57;27.40;36.50
21085;DHT22;72320;50.082;20.000;2024-03-23T08:05:43;27.60;36.20
21085;DHT22;72320;50.082;20.000;2024-03-23T08:08:30;27.70;35.60
21085;DHT22;72320;50.082;20.000;2024-03-23T08:11:16;28.00;35.20
21085;DHT22;72320;50.082;20.000;2024-03-23T08:14:02;28.00;35.50
21085;DHT22;72320;50.082;20.000;2024-03-23T08:16:29;28.10;35.40
21085;DHT22;72320;50.082;20.000;2024-03-23T08:18:55;27.90;34.80
21085;DHT22;72320;50.082;20.000;2024-03-23T08:21:21;27.90;34.90
21085;DHT22;72320;50.082;20.000;2024-03-23T08:23:47;28.00;34.90
21085;DHT22;72320;50.082;20.000;2024-03-23T08:26:16;28.30;34.80
21085;DHT22;72320;50.082;20.000;2024-03-23T08:28:44;28.60;34.40
21085;DHT22;72320;50.082;20.000;2024-03-23T08:31:11;28.80;34.20
21085;DHT22;72320;50.082;20.000;2024-03-23T08:33:38;29.00;33.40
21085;DHT22;72320;50.082;20.000;2024-03-23T08:36:05;29.20;33.30
21085;DHT22;72320;50.082;20.000;2024-03-23T08:38:34;29.30;32.90
21085;DHT22;72320;50.082;20.000;2024-03-23T08:41:04;29.60;32.80
21085;DHT22;72320;50.082;20.000;2024-03-23T08:43:35;29.80;32.40
21085;DHT22;72320;50.082;20.000;2024-03-23T08:48:41;30.20;31.20
21085;DHT22;72320;50.082;20.000;2024-03-23T08:51:14;30.30;31.40
21085;DHT22;72320;50.082;20.000;2024-03-23T08:53:42;30.50;31.00
21085;DHT22;72320;50.082;20.000;2024-03-23T08:56:09;30.60;30.70
21085;DHT22;72320;50.082;20.000;2024-03-23T08:58:55;30.50;30.40
21085;DHT22;72320;50.082;20.000;2024-03-23T09:01:41;30.40;30.40
21085;DHT22;72320;50.082;20.000;2024-03-23T09:04:24;30.30;30.40
21085;DHT22;72320;50.082;20.000;2024-03-23T09:06:50;30.30;30.10
21085;DHT22;72320;50.082;20.000;2024-03-23T09:09:37;30.00;30.10
21085;DHT22;72320;50.082;20.000;2024-03-23T09:12:24;29.90;30.00
21085;DHT22;72320;50.082;20.000;2024-03-23T09:14:50;29.80;29.80
21085;DHT22;72320;50.082;20.000;2024-03-23T09:17:36;29.90;30.40
21085;DHT22;72320;50.082;20.000;2024-03-23T09:20:22;30.10;30.20
21085;DHT22;72320;50.082;20.000;2024-03-23T09:23:09;30.30;30.00
21085;DHT22;72320;50.082;20.000;2024-03-23T09:25:38;30.50;29.50
21085;DHT22;72320;50.082;20.000;2024-03-23T09:28:24;30.80;29.70
21085;DHT22;72320;50.082;20.000;2024-03-23T09:31:12;31.10;29.40
21085;DHT22;72320;50.082;20.000;2024-03-23T09:33:58;31.20;29.30
21085;DHT22;72320;50.082;20.000;2024-03-23T09:36:44;31.40;29.30
21085;DHT22;72320;50.082;20.000;2024-03-23T09:39:30;31.70;29.00
21085;DHT22;72320;50.082;20.000;2024-03-23T09:41:57;31.90;28.80
21085;DHT22;72320;50.082;20.000;2024-03-23T09:44:43;32.00;28.70
21085;DHT22;72320;50.082;20.000;2024-03-23T09:47:30;32.20;28.70
21085;DHT22;72320;50.082;20.000;2024-03-23T09:50:16;32.40;28.30
21085;DHT22;72320;50.082;20.000;2024-03-23T09:53:02;32.50;28.10
21085;DHT22;72320;50.082;20.000;2024-03-23T09:55:47;32.60;28.20
21085;DHT22;72320;50.082;20.000;2024-03-23T09:58:33;32.60;28.00
21085;DHT22;72320;50.082;20.000;2024-03-23T10:01:21;32.60;28.10
21085;DHT22;72320;50.082;20.000;2024-03-23T10:04:07;32.60;28.00
21085;DHT22;72320;50.082;20.000;2024-03-23T10:06:53;32.70;28.00
21085;DHT22;72320;50.082;20.000;2024-03-23T10:09:39;32.80;27.80
21085;DHT22;72320;50.082;20.000;2024-03-23T10:12:25;32.80;27.70
21085;DHT22;72320;50.082;20.000;2024-03-23T10:15:15;32.80;27.80
21085;DHT22;72320;50.082;20.000;2024-03-23T10:18:18;32.90;27.70
21085;DHT22;72320;50.082;20.000;2024-03-23T10:23:49;32.70;27.70
21085;DHT22;72320;50.082;20.000;2024-03-23T10:26:35;32.70;27.80
21085;DHT22;72320;50.082;20.000;2024-03-23T10:29:21;32.60;27.80
21085;DHT22;72320;50.082;20.000;2024-03-23T10:32:10;32.40;27.70
21085;DHT22;72320;50.082;20.000;2024-03-23T10:34:57;32.30;27.30
21085;DHT22;72320;50.082;20.000;2024-03-23T10:38:02;32.00;27.20
21085;DHT22;72320;50.082;20.000;2024-03-23T10:40:33;31.90;26.20
21085;DHT22;72320;50.082;20.000;2024-03-23T10:43:23;31.80;26.20
21085;DHT22;72320;50.082;20.000;2024-03-23T10:46:09;31.70;26.20
21085;DHT22;72320;50.082;20.000;2024-03-23T10:48:51;31.40;26.70
21085;DHT22;72320;50.082;20.000;2024-03-23T10:51:37;31.10;26.80
21085;DHT22;72320;50.082;20.000;2024-03-23T10:54:24;31.10;26.60
21085;DHT22;72320;50.082;20.000;2024-03-23T10:57:13;31.00;26.40
21085;DHT22;72320;50.082;20.000;2024-03-23T11:00:05;30.80;26.50
21085;DHT22;72320;50.082;20.000;2024-03-23T11:02:52;30.40;26.40
21085;DHT22;72320;50.082;20.000;2024-03-23T11:05:37;30.20;26.40
21085;DHT22;72320;50.082;20.000;2024-03-23T11:08:30;29.90;26.30
21085;DHT22;72320;50.082;20.000;2024-03-23T11:11:23;29.80;26.40
21085;DHT22;72320;50.082;20.000;2024-03-23T11:13:58;29.90;26.40
21085;DHT22;72320;50.082;20.000;2024-03-23T11:16:45;29.70;25.90
21085;DHT22;72320;50.082;20.000;2024-03-23T11:19:33;29.80;25.90
21085;DHT22;72320;50.082;20.000;2024-03-23T11:22:40;29.50;25.90
21085;DHT22;72320;50.082;20.000;2024-03-23T11:25:29;29.20;26.40
21085;DHT22;72320;50.082;20.000;2024-03-23T11:28:15;28.90;26.80
21085;DHT22;72320;50.082;20.000;2024-03-23T11:30:42;28.70;27.10
21085;DHT22;72320;50.082;20.000;2024-03-23T11:33:27;28.90;27.10
21085;DHT22;72320;50.082;20.000;2024-03-23T11:35:54;28.80;26.90
21085;DHT22;72320;50.082;20.000;2024-03-23T11:38:20;28.80;26.90
21085;DHT22;72320;50.082;20.000;2024-03-23T11:40:46;28.80;27.00
21085;DHT22;72320;50.082;20.000;2024-03-23T11:43:18;28.90;26.90
21085;DHT22;72320;50.082;20.000;2024-03-23T11:45:47;29.10;26.80
21085;DHT22;72320;50.082;20.000;2024-03-23T11:48:21;29.20;26.90
21085;DHT22;72320;50.082;20.000;2024-03-23T11:50:49;29.50;26.70
21085;DHT22;72320;50.082;20.000;2024-03-23T11:53:22;29.70;26.60
21085;DHT22;72320;50.082;20.000;2024-03-23T11:55:56;30.00;26.30
21085;DHT22;72320;50.082;20.000;2024-03-23T11:58:24;30.10;26.10
21085;DHT22;72320;50.082;20.000;2024-03-23T12:01:01;30.20;25.90
21085;DHT22;72320;50.082;20.000;2024-03-23T12:03:28;30.50;26.20
21085;DHT22;72320;50.082;20.000;2024-03-23T12:05:57;31.10;26.00
21085;DHT22;72320;50.082;20.000;2024-03-23T12:08:29;31.20;25.80
21085;DHT22;72320;50.082;20.000;2024-03-23T12:11:12;31.30;25.60
21085;DHT22;72320;50.082;20.000;2024-03-23T12:14:02;31.30;25.20
21085;DHT22;72320;50.082;20.000;2024-03-23T12:16:44;31.50;25.30
21085;DHT22;72320;50.082;20.000;2024-03-23T12:19:29;31.90;25.10
21085;DHT22;72320;50.082;20.000;2024-03-23T12:22:15;32.20;24.80
21085;DHT22;72320;50.082;20.000;2024-03-23T12:25:02;32.10;24.50
21085;DHT22;72320;50.082;20.000;2024-03-23T12:27:48;32.00;24.40
21085;DHT22;72320;50.082;20.000;2024-03-23T12:30:40;32.00;24.40
21085;DHT22;72320;50.082;20.000;2024-03-23T12:33:26;31.70;24.60
21085;DHT22;72320;50.082;20.000;2024-03-23T12:36:11;31.30;24.90
21085;DHT22;72320;50.082;20.000;2024-03-23T12:38:58;31.20;25.10
21085;DHT22;72320;50.082;20.000;2024-03-23T12:41:44;31.00;25.50
21085;DHT22;72320;50.082;20.000;2024-03-23T12:44:29;30.70;25.90
21085;DHT22;72320;50.082;20.000;2024-03-23T12:47:16;30.60;26.00
21085;DHT22;72320;50.082;20.000;2024-03-23T12:50:01;30.40;26.80
21085;DHT22;72320;50.082;20.000;2024-03-23T12:52:47;30.50;25.80
21085;DHT22;72320;50.082;20.000;2024-03-23T12:55:37;30.50;25.50
21085;DHT22;72320;50.082;20.000;2024-03-23T12:58:23;30.50;25.30
21085;DHT22;72320;50.082;20.000;2024-03-23T13:01:08;30.40;25.40
21085;DHT22;72320;50.082;20.000;2024-03-23T13:03:55;30.60;25.40
21085;DHT22;72320;50.082;20.000;2024-03-23T13:06:41;30.40;25.60
21085;DHT22;72320;50.082;20.000;2024-03-23T13:09:27;30.70;25.70
21085;DHT22;72320;50.082;20.000;2024-03-23T13:12:13;30.80;25.50
21085;DHT22;72320;50.082;20.000;2024-03-23T13:14:59;30.40;25.60
21085;DHT22;72320;50.082;20.000;2024-03-23T13:17:46;30.50;25.90
21085;DHT22;72320;50.082;20.000;2024-03-23T13:20:31;30.40;26.00
21085;DHT22;72320;50.082;20.000;2024-03-23T13:23:21;30.40;26.00
21085;DHT22;72320;50.082;20.000;2024-03-23T13:25:53;30.40;26.10
21085;DHT22;72320;50.082;20.000;2024-03-23T13:28:41;30.50;26.10
21085;DHT22;72320;50.082;20.000;2024-03-23T13:31:27;30.60;26.10
21085;DHT22;72320;50.082;20.000;2024-03-23T13:34:13;30.50;26.00
21085;DHT22;72320;50.082;20.000;2024-03-23T13:36:59;30.40;26.00
21085;DHT22;72320;50.082;20.000;2024-03-23T13:39:46;30.50;26.00
21085;DHT22;72320;50.082;20.000;2024-03-23T13:42:32;30.70;26.40
21085;DHT22;72320;50.082;20.000;2024-03-23T13:45:18;31.00;26.20
21085;DHT22;72320;50.082;20.000;2024-03-23T13:48:04;31.30;26.30
21085;DHT22;72320;50.082;20.000;2024-03-23T13:50:58;31.60;26.10
21085;DHT22;72320;50.082;20.000;2024-03-23T13:53:49;31.80;25.90
21085;DHT22;72320;50.082;20.000;2024-03-23T13:56:35;31.70;25.60
21085;DHT22;72320;50.082;20.000;2024-03-23T13:59:09;31.60;25.50
21085;DHT22;72320;50.082;20.000;2024-03-23T14:01:57;31.70;25.60
21085;DHT22;72320;50.082;20.000;2024-03-23T14:04:43;31.70;25.70
21085;DHT22;72320;50.082;20.000;2024-03-23T14:07:29;31.80;25.80
21085;DHT22;72320;50.082;20.000;2024-03-23T14:10:15;32.00;25.60
21085;DHT22;72320;50.082;20.000;2024-03-23T14:13:01;32.10;25.40
21085;DHT22;72320;50.082;20.000;2024-03-23T14:15:53;32.10;25.30
21085;DHT22;72320;50.082;20.000;2024-03-23T14:18:39;31.90;24.50
21085;DHT22;72320;50.082;20.000;2024-03-23T14:21:25;31.30;23.90
21085;DHT22;72320;50.082;20.000;2024-03-23T14:24:11;31.20;24.10
21085;DHT22;72320;50.082;20.000;2024-03-23T14:26:57;30.90;24.60
21085;DHT22;72320;50.082;20.000;2024-03-23T14:29:45;30.90;24.10
21085;DHT22;72320;50.082;20.000;2024-03-23T14:32:32;30.80;24.10
21085;DHT22;72320;50.082;20.000;2024-03-23T14:35:21;30.70;24.30
21085;DHT22;72320;50.082;20.000;2024-03-23T14:38:07;30.30;24.40
21085;DHT22;72320;50.082;20.000;2024-03-23T14:40:53;30.10;24.20
21085;DHT22;72320;50.082;20.000;2024-03-23T14:43:38;29.80;24.40
21085;DHT22;72320;50.082;20.000;2024-03-23T14:46:24;29.20;25.10
21085;DHT22;72320;50.082;20.000;2024-03-23T14:49:14;28.50;29.10
21085;DHT22;72320;50.082;20.000;2024-03-23T14:51:43;27.70;36.20
21085;DHT22;72320;50.082;20.000;2024-03-23T14:54:09;26.90;38.10
21085;DHT22;72320;50.082;20.000;2024-03-23T14:56:35;26.20;39.40
21085;DHT22;72320;50.082;20.000;2024-03-23T14:59:01;25.50;40.30
21085;DHT22;72320;50.082;20.000;2024-03-23T15:01:28;25.00;41.90
21085;DHT22;72320;50.082;20.000;2024-03-23T15:03:54;24.60;42.20
21085;DHT22;72320;50.082;20.000;2024-03-23T15:06:20;24.10;43.20
21085;DHT22;72320;50.082;20.000;2024-03-23T15:08:45;23.80;43.40
21085;DHT22;72320;50.082;20.000;2024-03-23T15:11:11;23.60;44.00
21085;DHT22;72320;50.082;20.000;2024-03-23T15:13:39;23.20;44.40
21085;DHT22;72320;50.082;20.000;2024-03-23T15:16:05;22.80;45.00
21085;DHT22;72320;50.082;20.000;2024-03-23T15:18:32;22.80;45.10
21085;DHT22;72320;50.082;20.000;2024-03-23T15:20:59;22.80;45.30
21085;DHT22;72320;50.082;20.000;2024-03-23T15:23:35;23.00;45.20
21085;DHT22;72320;50.082;20.000;2024-03-23T15:26:01;22.90;44.90
21085;DHT22;72320;50.082;20.000;2024-03-23T15:28:28;23.10;44.60
21085;DHT22;72320;50.082;20.000;2024-03-23T15:31:07;23.10;44.90
21085;DHT22;72320;50.082;20.000;2024-03-23T15:33:35;23.30;45.00
21085;DHT22;72320;50.082;20.000;2024-03-23T15:36:21;23.40;44.70
21085;DHT22;72320;50.082;20.000;2024-03-23T15:39:07;23.50;44.40
21085;DHT22;72320;50.082;20.000;2024-03-23T15:41:53;23.20;45.00
21085;DHT22;72320;50.082;20.000;2024-03-23T15:44:39;23.30;45.50
21085;DHT22;72320;50.082;20.000;2024-03-23T15:47:25;23.20;46.40
21085;DHT22;72320;50.082;20.000;2024-03-23T15:49:56;23.00;47.40
21085;DHT22;72320;50.082;20.000;2024-03-23T15:52:41;22.80;48.20
21085;DHT22;72320;50.082;20.000;2024-03-23T15:55:27;22.60;48.50
21085;DHT22;72320;50.082;20.000;2024-03-23T15:58:13;22.40;49.50
21085;DHT22;72320;50.082;20.000;2024-03-23T16:01:03;22.30;50.50
21085;DHT22;72320;50.082;20.000;2024-03-23T16:03:56;22.40;50.10
21085;DHT22;72320;50.082;20.000;2024-03-23T16:06:42;22.50;50.10
21085;DHT22;72320;50.082;20.000;2024-03-23T16:09:28;22.70;49.90
21085;DHT22;72320;50.082;20.000;2024-03-23T16:12:13;22.70;49.90
21085;DHT22;72320;50.082;20.000;2024-03-23T16:14:59;22.70;50.10
21085;DHT22;72320;50.082;20.000;2024-03-23T16:17:45;22.80;50.10
21085;DHT22;72320;50.082;20.000;2024-03-23T16:20:31;22.70;50.50
21085;DHT22;72320;50.082;20.000;2024-03-23T16:23:17;22.50;51.10
21085;DHT22;72320;50.082;20.000;2024-03-23T16:26:04;22.20;51.80
21085;DHT22;72320;50.082;20.000;2024-03-23T16:28:50;22.10;52.50
21085;DHT22;72320;50.082;20.000;2024-03-23T16:31:36;21.90;52.80
21085;DHT22;72320;50.082;20.000;2024-03-23T16:34:22;21.90;52.70
21085;DHT22;72320;50.082;20.000;2024-03-23T16:37:08;22.00;52.40
21085;DHT22;72320;50.082;20.000;2024-03-23T16:39:54;22.10;52.10
21085;DHT22;72320;50.082;20.000;2024-03-23T16:42:40;22.20;51.70
21085;DHT22;72320;50.082;20.000;2024-03-23T16:45:25;22.40;51.40
21085;DHT22;72320;50.082;20.000;2024-03-23T16:48:11;22.50;50.80
21085;DHT22;72320;50.082;20.000;2024-03-23T16:50:37;22.60;50.50
21085;DHT22;72320;50.082;20.000;2024-03-23T16:53:23;22.70;50.50
21085;DHT22;72320;50.082;20.000;2024-03-23T16:56:11;22.50;50.70
21085;DHT22;72320;50.082;20.000;2024-03-23T16:58:53;22.40;50.70
21085;DHT22;72320;50.082;20.000;2024-03-23T17:01:39;22.40;50.20
21085;DHT22;72320;50.082;20.000;2024-03-23T17:04:25;22.60;50.20
21085;DHT22;72320;50.082;20.000;2024-03-23T17:07:12;22.80;49.70
21085;DHT22;72320;50.082;20.000;2024-03-23T17:09:59;23.10;49.00
21085;DHT22;72320;50.082;20.000;2024-03-23T17:12:45;23.20;48.80
21085;DHT22;72320;50.082;20.000;2024-03-23T17:15:32;23.30;47.70
21085;DHT22;72320;50.082;20.000;2024-03-23T17:18:18;23.20;48.30
21085;DHT22;72320;50.082;20.000;2024-03-23T17:21:04;23.20;48.00
21085;DHT22;72320;50.082;20.000;2024-03-23T17:23:50;22.90;48.50
21085;DHT22;72320;50.082;20.000;2024-03-23T17:26:36;22.80;48.00
21085;DHT22;72320;50.082;20.000;2024-03-23T17:29:22;22.40;49.20
21085;DHT22;72320;50.082;20.000;2024-03-23T17:32:08;22.10;49.90
21085;DHT22;72320;50.082;20.000;2024-03-23T17:34:54;22.10;49.80
21085;DHT22;72320;50.082;20.000;2024-03-23T17:37:40;22.10;49.80
21085;DHT22;72320;50.082;20.000;2024-03-23T17:40:28;22.30;49.40
21085;DHT22;72320;50.082;20.000;2024-03-23T17:42:54;22.00;49.80